METAR Nordic - 23 Oct 2017 - 0948 UTC - RocketRoute WX - rrwx.com
EKYT 230946Z 08011KT 9999 -RA BKN011 10/09 Q1016 EKAH 230920Z AUTO 08010KT 060V120 9999NDV BKN009/// 11/10 Q1015 EKBI 230920Z AUTO 06008KT 6000NDV FEW006/// OVC013/// 11/10 Q1013 EKRN 230920Z AUTO 08005KT 050V110 9999NDV SCT027/// BKN079/// 12/10 Q1014 EKEB 230920Z AUTO 08009KT 9999NDV SCT009/// BKN028/// 11/11 Q1012 EKKA 230937Z 08011KT 050V110 9999 FEW007 BKN010 11/10 Q1014 TEMPO 7000 BKN007 EKCH 230920Z 08010KT 9999 FEW008 SCT015 BKN045 11/09 Q1014 TEMPO BKN012 EKOD 230850Z 10006KT 9999 SCT007 BKN030 11/10 Q1012 EKRK 230920Z 09009KT 7000 -RA FEW003 SCT005 BKN008 10/09 Q1014 EKSP 230940Z 09007KT 060V120 8000 SCT005 SCT010 BKN022 11/10 Q1012 TEMPO 4000 -SHRA EKVD 230920Z 07009KT 4500 BR SCT006 BKN015 11/10 Q1012 ESTA 230920Z 09011KT 9999 BKN007 10/09 Q1015 ESNZ 230920Z 12016KT 9999 SCT009 OVC046 01/M00 Q1024 ESGP   ESGG 230920Z 08012KT 9999 -DZ SCT009 BKN014 03/02 Q1018 ESMT 230920Z 08011KT 9999 BKN010 09/07 Q1016 ESMQ 230920Z 05011KT 9999 FEW009 OVC011 07/06 Q1017 ESNQ 230920Z 19010KT 9999 BKN004 M06/M07 Q1026 ESPA 230920Z 31004KT 9999 SCT012 M02/M03 Q1031 ESMS 230920Z 08008KT 8000 DZ BKN007 10/09 Q1014 ESSL 230920Z 07012KT 9999 -RA SCT026 BKN038 06/03 Q1021 ESSA 230920Z 06009KT 9999 -SHRA BKN016 04/01 Q1023 NOSIG ESSB 230920Z 02006KT 9999 FEW014 BKN025 05/02 Q1023 ESKN 230920Z 03010KT 9999 VCSH FEW015 FEW031TCU BKN048 05/03 Q1022 ESNU 230920Z 03005KT 9999 SCT031 03/M00 Q1029 ESSV 230920Z 09016KT CAVOK 07/00 Q1019 ENAN 230920Z 19008KT CAVOK 03/M01 Q1025 ENAT 230850Z 16007KT CAVOK M01/M08 Q1026 RMK WIND 700FT 16010KT ENHF 230920Z VRB02G13KT CAVOK 02/M05 Q1024 RMK WIND 1254FT 23007KT ENDU 230920Z 00000KT CAVOK M05/M06 Q1026 NOSIG RMK WIND 1100FT 17008KT WIND 2200FT 16010KT ENBO 230920Z 09017KT CAVOK 04/M04 Q1025 NOSIG ENEV 230850Z 21003KT 150V260 CAVOK 02/M05 Q1026 RMK WIND 1400FT 15010KT ENBR 230920Z VRB01KT 9999 BKN055 10/04 Q1016 NOSIG RMK WIND 1200FT 16008KT ENFL 230920Z 10007KT 9999 FEW055 10/04 Q1016 ENGM 230920Z 02006KT 9999 SCT039 BKN050 02/M02 Q1023 NOSIG ENHD 230920Z 12007KT CAVOK 10/02 Q1016 ENCN 230920Z 04017G28KT 9999 BKN015 05/03 Q1018 ENTC 230920Z 21011KT CAVOK 02/M04 Q1025 NOSIG RMK WIND 2600FT 26007KT ENFB 230920Z AUTO 17023KT 9999NDV FEW019/// 12/08 Q1014 W///S4 ENSB 230920Z 23021G31KT 190V250 9999 -RA SCT020 BKN035 06/03 Q1008 TEMPO RA BKN012 RMK WIND 1400FT 24028G40KT ENNK   ENRO 230920Z 16012KT 9999 FEW030 BKN047 01/M05 Q1021 ENRY 230920Z 04007KT CAVOK 03/M00 Q1022 NOSIG ENZV 230920Z 09006KT 9999 FEW040 BKN070 10/00 Q1016 NOSIG ENVA 230920Z 15012KT CAVOK 07/M03 Q1020 NOSIG RMK WIND 670FT 17021KT ENAL 230920Z 17009KT 070V230 CAVOK 10/05 Q1015 EFET 230920Z AUTO 00000KT CAVOK M09/M10 Q1027 EFTP 230920Z 04005KT CAVOK 00/M02 Q1027 EFTU 230920Z AUTO 09011KT 9999 FEW014/// OVC051/// 02/M01 Q1026 BIAR 230939Z 16005KT 080V220 7000 -RA SCT027 OVC037 10/06 Q0995 BIEG 230900Z 24005KT 9999 -RA SCT025 BKN035 BKN050 09/07 Q0997 R04/290195 BIKF 230930Z 06015KT 9999 BKN029 OVC033 08/05 Q0989 BIRK 230900Z 06010KT 9999 -RA FEW030 SCT044 BKN070 08/03 Q0989 BGJN 230850Z 08004KT 020V120 9999 BKN180 M07/M15 Q1017 BGSF 230850Z AUTO 07012KT 9999NDV BKN017/// OVC020/// M12/M15 Q1018 BGKK 230850Z 23004KT 190V270 9999 FEW100 SCT200 01/M05 Q1004 BGBW 230850Z AUTO 03002KT 9999NDV FEW120/// M00/M06 Q1002 BGGH 230850Z 05014KT 9999 FEW200 M03/M08 Q1008 BGTL 230943Z AUTO 11022KT 4000 HZ SCT021 BKN035 OVC043 M06/M09 A2982 RMK AO2 VIS 4000V6000 SNE26SNB27E28 CIG 018 RWY26 SLP085 BGSS  

RocketRoute WX - rrwx.com weather for pilots